Time;durP1;ratioP1;P1;durP2;ratioP2;P2;SDS_P1;SDS_P2;PMS_P1;PMS_P2;Temp;Humidity;BMP_temperature;BMP_pressure;BME280_temperature;BME280_humidity;BME280_pressure;Samples;Min_cycle;Max_cycle;Signal;HPM_P1;HPM_P2
2023/06/07 00:01:17;;;;;;;19.45;7.78;;;;;;;12.87;69.94;102035.03;5030670;28;20636;-64
2023/06/07 00:03:42;;;;;;;20.15;7.72;;;;;;;12.70;70.46;102036.59;5003978;28;20026;-63
2023/06/07 00:06:11;;;;;;;15.85;5.50;;;;;;;12.73;70.72;102031.16;5003494;28;20029;-64
2023/06/07 00:08:36;;;;;;;13.95;6.05;;;;;;;12.69;70.44;102040.19;5020071;28;20030;-64
2023/06/07 00:11:02;;;;;;;12.48;5.90;;;;;;;12.75;70.34;102034.63;5017060;28;20044;-64
2023/06/07 00:13:27;;;;;;;12.52;6.65;;;;;;;12.80;70.35;102035.28;5016710;28;20095;-64
2023/06/07 00:15:53;;;;;;;21.48;6.60;;;;;;;12.69;70.81;102030.41;5007566;28;20135;-63
2023/06/07 00:18:19;;;;;;;12.07;6.15;;;;;;;12.59;70.91;102033.50;5033487;28;20025;-64
2023/06/07 00:20:45;;;;;;;18.05;6.00;;;;;;;12.85;70.54;102029.78;5031682;28;20018;-64
2023/06/07 00:23:13;;;;;;;16.33;6.07;;;;;;;12.98;69.03;102022.19;4997721;28;20113;-64
2023/06/07 00:25:38;;;;;;;12.98;6.80;;;;;;;12.77;69.99;102030.09;5014594;28;20184;-65
2023/06/07 00:28:04;;;;;;;15.02;6.63;;;;;;;12.69;69.45;102030.41;4996939;28;20031;-65
2023/06/07 00:30:29;;;;;;;17.00;6.30;;;;;;;12.65;70.54;102027.94;5014485;28;20036;-64
2023/06/07 00:32:54;;;;;;;15.43;6.30;;;;;;;12.75;70.13;102029.31;4997569;28;20032;-63
2023/06/07 00:35:20;;;;;;;15.02;5.63;;;;;;;12.92;68.81;102031.28;5016280;28;20055;-63
2023/06/07 00:37:45;;;;;;;17.83;6.88;;;;;;;12.54;70.48;102026.59;5024968;28;20308;-63
2023/06/07 00:40:11;;;;;;;15.70;6.25;;;;;;;12.68;70.90;102033.13;4997976;28;20103;-64
2023/06/07 00:42:36;;;;;;;16.83;5.65;;;;;;;12.60;69.66;102029.91;5022703;28;20379;-63
2023/06/07 00:45:01;;;;;;;14.55;5.97;;;;;;;12.60;70.70;102021.97;5006246;28;20140;-64
2023/06/07 00:47:27;;;;;;;13.25;5.25;;;;;;;12.27;71.54;102027.63;5014823;28;20032;-64
2023/06/07 00:49:52;;;;;;;14.93;5.38;;;;;;;12.37;71.25;102023.69;5018237;28;20467;-63
2023/06/07 00:52:18;;;;;;;14.30;6.10;;;;;;;12.34;71.18;102023.81;5012825;28;20445;-63
2023/06/07 00:54:44;;;;;;;10.98;5.68;;;;;;;12.21;72.25;102024.28;5029533;28;20434;-63
2023/06/07 00:57:09;;;;;;;16.10;6.57;;;;;;;12.45;71.44;102026.06;5004972;28;20029;-64
2023/06/07 00:59:35;;;;;;;16.45;6.03;;;;;;;12.35;71.71;102025.53;5012217;28;20030;-67
2023/06/07 01:02:01;;;;;;;18.15;6.50;;;;;;;12.35;70.99;102028.19;4995602;28;20470;-64
2023/06/07 01:04:29;;;;;;;16.25;6.80;;;;;;;12.05;72.85;102026.63;5013635;28;20025;-63
2023/06/07 01:06:54;;;;;;;12.38;6.03;;;;;;;11.92;72.67;102028.88;5009556;28;20065;-63
2023/06/07 01:09:20;;;;;;;12.40;6.07;;;;;;;11.98;73.81;102024.25;5013679;28;20167;-63
2023/06/07 01:11:48;;;;;;;16.10;6.53;;;;;;;11.93;72.64;102020.00;5005059;28;20038;-65
2023/06/07 01:14:14;;;;;;;25.92;7.70;;;;;;;11.89;73.00;102028.97;5012571;28;20443;-63
2023/06/07 01:16:40;;;;;;;23.17;6.68;;;;;;;11.84;73.89;102025.63;5000517;28;20105;-63
2023/06/07 01:19:06;;;;;;;15.48;5.70;;;;;;;11.71;73.81;102025.19;5012893;28;20223;-63
2023/06/07 01:21:36;;;;;;;19.58;6.50;;;;;;;11.76;73.49;102033.84;4980470;28;20112;-64
2023/06/07 01:24:03;;;;;;;18.80;7.28;;;;;;;11.77;73.83;102034.72;4986308;28;20017;-63
2023/06/07 01:26:28;;;;;;;20.17;6.35;;;;;;;11.65;74.23;102028.91;5019239;28;20022;-64
2023/06/07 01:28:55;;;;;;;17.10;7.32;;;;;;;11.65;74.82;102010.38;5006434;28;20076;-63
2023/06/07 01:31:24;;;;;;;19.05;7.05;;;;;;;11.64;75.13;102027.19;4996148;28;20035;-64
2023/06/07 01:33:49;;;;;;;17.40;5.97;;;;;;;11.90;74.33;102020.09;5028213;28;20025;-63
2023/06/07 01:36:16;;;;;;;13.73;5.90;;;;;;;11.71;74.16;102024.31;4998882;28;20533;-63
2023/06/07 01:38:42;;;;;;;16.52;6.57;;;;;;;11.83;74.78;102023.91;5032534;28;20071;-62
2023/06/07 01:41:08;;;;;;;17.10;5.97;;;;;;;11.61;75.15;102023.78;5009295;28;20107;-63
2023/06/07 01:43:34;;;;;;;17.35;5.72;;;;;;;11.54;75.25;102023.13;4996034;28;20017;-63
2023/06/07 01:45:59;;;;;;;18.73;6.38;;;;;;;11.82;74.89;102025.66;5013383;28;20109;-63
2023/06/07 01:48:25;;;;;;;20.60;6.30;;;;;;;11.44;75.17;102027.91;5007289;28;20120;-65
2023/06/07 01:50:51;;;;;;;17.95;7.38;;;;;;;11.44;75.57;102019.06;5023556;28;20525;-64
2023/06/07 01:53:16;;;;;;;14.57;6.55;;;;;;;11.48;74.68;102024.22;5011523;28;20116;-64
2023/06/07 01:55:41;;;;;;;20.35;7.15;;;;;;;11.48;74.97;102008.34;5002471;28;20021;-64
2023/06/07 01:58:30;;;;;;;21.77;6.32;;;;;;;11.43;75.54;102009.41;5023352;28;20172;-64
2023/06/07 02:01:21;;;;;;;15.98;6.57;;;;;;;11.52;75.43;102011.72;5005500;28;20121;-64
2023/06/07 02:03:51;;;;;;;20.23;7.00;;;;;;;11.37;75.53;102011.34;5005114;28;20060;-64
2023/06/07 02:06:24;;;;;;;17.35;7.15;;;;;;;11.32;75.53;102018.59;4998393;28;20730;-64
2023/06/07 02:08:52;;;;;;;15.75;7.32;;;;;;;11.33;75.66;102020.31;5000131;28;20025;-64
2023/06/07 02:11:21;;;;;;;20.65;6.85;;;;;;;11.35;75.81;102007.88;5014723;28;20025;-64
2023/06/07 02:13:47;;;;;;;20.85;7.15;;;;;;;11.48;76.06;102007.44;5013969;28;20088;-62
2023/06/07 02:16:12;;;;;;;21.60;7.30;;;;;;;11.41;75.88;102006.81;5015239;28;20025;-62
2023/06/07 02:18:40;;;;;;;17.17;6.65;;;;;;;11.20;77.10;102014.56;5032518;28;20061;-63
2023/06/07 02:21:07;;;;;;;22.95;7.72;;;;;;;11.16;76.17;102014.72;5014687;28;20398;-63
2023/06/07 02:23:32;;;;;;;18.98;6.78;;;;;;;11.14;77.60;102024.50;5014027;28;20104;-64
2023/06/07 02:25:58;;;;;;;21.75;6.75;;;;;;;11.18;76.19;102003.16;5027550;28;20535;-63
2023/06/07 02:28:23;;;;;;;23.88;6.82;;;;;;;11.31;76.96;102011.56;5017938;28;20096;-64
2023/06/07 02:30:49;;;;;;;23.33;7.05;;;;;;;11.36;77.01;102009.63;5011310;28;20117;-64
2023/06/07 02:33:15;;;;;;;16.20;7.15;;;;;;;11.18;77.20;102011.09;4995255;28;20101;-64
2023/06/07 02:35:41;;;;;;;22.58;6.93;;;;;;;11.21;76.44;102010.16;5011477;28;20112;-64
2023/06/07 02:38:06;;;;;;;15.90;7.22;;;;;;;10.96;77.75;102016.22;5014337;28;20118;-64
2023/06/07 02:40:32;;;;;;;19.92;7.85;;;;;;;11.04;76.88;102006.28;5000411;28;20029;-64
2023/06/07 02:42:58;;;;;;;21.17;7.85;;;;;;;10.98;77.32;102006.47;5031659;28;20083;-63
2023/06/07 02:45:23;;;;;;;22.02;7.22;;;;;;;11.10;75.88;102017.59;5030765;28;20053;-63
2023/06/07 02:47:48;;;;;;;19.55;6.72;;;;;;;11.12;76.95;102013.09;4997311;28;20034;-64
2023/06/07 02:50:14;;;;;;;21.38;7.13;;;;;;;11.12;76.47;102013.94;4979364;28;20026;-63
2023/06/07 02:52:39;;;;;;;21.75;6.97;;;;;;;11.20;76.79;102011.06;5025179;28;20516;-63
2023/06/07 02:55:04;;;;;;;31.73;8.85;;;;;;;11.02;77.05;102016.06;5013550;28;20033;-65
2023/06/07 02:57:30;;;;;;;23.23;7.18;;;;;;;10.97;77.44;102014.47;5024852;28;20067;-62
2023/06/07 02:59:56;;;;;;;20.38;7.00;;;;;;;11.31;76.39;102011.56;4988347;28;20033;-63
2023/06/07 03:02:21;;;;;;;25.10;9.07;;;;;;;10.89;78.34;102014.69;5010409;28;20386;-64
2023/06/07 03:04:46;;;;;;;21.95;7.60;;;;;;;10.87;78.01;102019.19;5008769;28;20041;-63
2023/06/07 03:07:12;;;;;;;22.80;8.55;;;;;;;10.76;78.40;102015.09;5021894;28;20165;-63
2023/06/07 03:09:40;;;;;;;19.08;7.18;;;;;;;10.69;78.96;102010.91;5013191;28;20057;-63
2023/06/07 03:12:06;;;;;;;18.27;7.43;;;;;;;10.96;77.43;102010.94;5012822;28;20130;-63
2023/06/07 03:14:32;;;;;;;24.10;7.18;;;;;;;10.93;77.52;102019.88;4995681;28;20084;-63
2023/06/07 03:16:58;;;;;;;19.88;7.53;;;;;;;10.79;78.16;102007.06;4995040;28;20045;-64
2023/06/07 03:19:23;;;;;;;19.15;7.72;;;;;;;10.84;78.87;102011.34;4994967;28;20072;-65
2023/06/07 03:21:52;;;;;;;21.58;7.03;;;;;;;10.74;78.42;102006.34;5014236;28;20091;-64
2023/06/07 03:24:17;;;;;;;26.58;6.78;;;;;;;10.72;78.05;102008.19;5016619;28;20029;-63
2023/06/07 03:26:43;;;;;;;20.98;7.50;;;;;;;10.64;79.79;102010.19;5018226;28;20035;-62
2023/06/07 03:29:09;;;;;;;31.00;7.88;;;;;;;10.63;79.96;102019.06;5015703;28;20050;-64
2023/06/07 03:31:35;;;;;;;19.52;6.95;;;;;;;10.65;78.71;102017.22;5016062;28;20025;-64
2023/06/07 03:34:00;;;;;;;20.48;6.97;;;;;;;10.67;80.14;102014.53;5014701;28;20399;-64
2023/06/07 03:36:28;;;;;;;27.35;6.93;;;;;;;11.00;78.13;102017.91;5014856;28;20030;-64
2023/06/07 03:38:54;;;;;;;19.23;7.28;;;;;;;10.69;78.49;102002.97;4998882;28;20406;-64
2023/06/07 03:41:19;;;;;;;19.08;6.57;;;;;;;10.69;79.24;102018.84;5015950;28;20025;-64
2023/06/07 03:43:44;;;;;;;15.52;6.10;;;;;;;10.62;78.44;102017.31;5015954;28;20018;-63
2023/06/07 03:46:10;;;;;;;20.38;6.85;;;;;;;10.68;79.54;102030.38;5025477;28;20498;-65
2023/06/07 03:48:36;;;;;;;25.77;8.07;;;;;;;10.75;79.46;102029.25;5031768;28;20061;-64
2023/06/07 03:51:01;;;;;;;24.42;7.93;;;;;;;10.77;77.89;102015.97;5034076;28;20025;-63
2023/06/07 03:53:27;;;;;;;23.50;7.95;;;;;;;10.67;78.63;102018.03;5024551;28;20447;-64
2023/06/07 03:55:52;;;;;;;27.50;6.93;;;;;;;10.90;79.53;102027.03;5012058;28;20037;-64
2023/06/07 03:58:18;;;;;;;25.10;8.38;;;;;;;10.76;78.28;102020.41;5008459;28;20456;-64
2023/06/07 04:00:53;;;;;;;18.75;7.65;;;;;;;10.75;78.38;102023.97;5030331;28;20030;-64
2023/06/07 04:03:24;;;;;;;36.97;8.90;;;;;;;10.75;78.96;102012.53;4998415;28;20405;-63
2023/06/07 04:05:52;;;;;;;21.77;6.43;;;;;;;11.28;76.79;102011.66;5013794;28;20018;-64
2023/06/07 04:08:17;;;;;;;18.42;5.95;;;;;;;11.02;77.52;102017.81;5002456;28;20037;-64
2023/06/07 04:10:43;;;;;;;26.70;7.45;;;;;;;10.92;77.94;102009.31;4985663;28;20030;-64
2023/06/07 04:13:09;;;;;;;16.80;6.93;;;;;;;10.71;78.19;102011.75;5022703;28;20033;-65
2023/06/07 04:15:34;;;;;;;19.73;7.03;;;;;;;10.79;79.04;102012.34;5017442;28;20100;-66
2023/06/07 04:18:00;;;;;;;27.17;7.85;;;;;;;11.11;77.76;102014.03;5000311;28;20075;-64
2023/06/07 04:20:25;;;;;;;15.55;6.22;;;;;;;11.00;77.53;102017.91;5016773;28;20504;-64
2023/06/07 04:22:51;;;;;;;30.60;7.50;;;;;;;10.84;77.83;102013.97;4992909;28;20052;-64
2023/06/07 04:25:21;;;;;;;16.92;6.15;;;;;;;10.83;79.61;102006.97;4981922;28;20057;-65
2023/06/07 04:27:48;;;;;;;18.20;6.15;;;;;;;11.00;78.12;102006.41;5017838;28;20053;-64
2023/06/07 04:30:15;;;;;;;22.73;7.70;;;;;;;11.05;77.51;102005.38;5031306;28;20025;-63
2023/06/07 04:32:43;;;;;;;17.52;6.57;;;;;;;10.81;77.88;102014.09;5034355;28;20056;-63
2023/06/07 04:35:08;;;;;;;22.35;6.55;;;;;;;10.86;79.26;102007.75;5033500;28;20021;-64
2023/06/07 04:37:34;;;;;;;22.33;8.32;;;;;;;10.87;78.70;102016.53;5016283;28;20132;-63
2023/06/07 04:39:59;;;;;;;22.13;7.82;;;;;;;10.76;79.27;102023.03;5016319;28;20517;-64
2023/06/07 04:42:25;;;;;;;23.33;7.75;;;;;;;10.71;79.32;102011.75;5032989;28;20045;-67
2023/06/07 04:44:52;;;;;;;27.02;8.48;;;;;;;11.33;77.22;102020.31;5032445;28;20022;-64
2023/06/07 04:47:18;;;;;;;17.05;7.45;;;;;;;10.78;78.28;102015.91;5016241;28;20414;-64
2023/06/07 04:49:43;;;;;;;22.75;7.43;;;;;;;11.16;77.80;102006.78;5016637;28;20056;-64
2023/06/07 04:52:12;;;;;;;18.38;7.85;;;;;;;11.16;77.99;102012.09;5033243;28;20033;-65
2023/06/07 04:54:37;;;;;;;21.13;7.80;;;;;;;10.96;77.16;102015.38;5016346;28;20075;-66
2023/06/07 04:57:03;;;;;;;17.38;7.63;;;;;;;10.85;78.24;102013.06;5015931;28;20029;-64
2023/06/07 04:59:34;;;;;;;23.48;8.20;;;;;;;11.23;76.38;102009.16;4999839;28;20037;-64
2023/06/07 05:02:02;;;;;;;28.25;9.55;;;;;;;10.92;77.76;102017.25;5033591;28;20036;-64
2023/06/07 05:04:28;;;;;;;22.13;8.23;;;;;;;10.82;78.09;102021.13;4999736;28;20389;-64
2023/06/07 05:06:58;;;;;;;27.00;10.18;;;;;;;10.73;78.17;102023.13;5032272;28;20026;-64
2023/06/07 05:09:24;;;;;;;27.38;8.90;;;;;;;10.65;78.81;102017.22;5033722;28;20382;-64
2023/06/07 05:11:49;;;;;;;19.90;7.97;;;;;;;10.76;78.85;102015.09;5015628;28;20021;-64
2023/06/07 05:14:15;;;;;;;24.40;8.32;;;;;;;11.00;77.13;102028.50;4999265;28;20057;-64
2023/06/07 05:16:43;;;;;;;17.90;8.23;;;;;;;10.91;77.65;102028.75;5032152;28;20032;-65
2023/06/07 05:19:11;;;;;;;16.42;7.90;;;;;;;10.96;77.85;102023.31;5015687;28;20124;-64
2023/06/07 05:21:36;;;;;;;16.90;8.70;;;;;;;11.04;77.80;102021.28;5015485;28;20120;-64
2023/06/07 05:24:02;;;;;;;16.13;7.32;;;;;;;10.89;77.47;102033.25;5015762;28;20197;-64
2023/06/07 05:26:27;;;;;;;25.88;10.77;;;;;;;10.94;77.57;102039.25;5015521;28;20026;-64
2023/06/07 05:28:53;;;;;;;19.77;8.05;;;;;;;10.87;78.03;102037.72;5033498;28;20033;-64
2023/06/07 05:31:18;;;;;;;15.82;7.85;;;;;;;10.81;77.67;102033.50;5031768;28;20025;-64
2023/06/07 05:33:44;;;;;;;18.17;8.02;;;;;;;10.70;78.42;102025.03;5015342;28;20445;-65
2023/06/07 05:36:11;;;;;;;16.70;7.20;;;;;;;10.76;77.45;102030.97;5033264;28;20076;-65
2023/06/07 05:38:37;;;;;;;14.95;7.90;;;;;;;10.77;76.92;102027.41;5032855;28;20134;-64
2023/06/07 05:41:02;;;;;;;16.02;8.73;;;;;;;10.63;77.95;102033.16;5033157;28;20136;-64
2023/06/07 05:43:28;;;;;;;13.52;8.20;;;;;;;10.97;77.78;102036.50;5033076;28;20032;-65
2023/06/07 05:45:53;;;;;;;18.70;8.55;;;;;;;11.18;75.92;102031.44;5015626;28;20518;-65
2023/06/07 05:48:18;;;;;;;16.20;8.45;;;;;;;11.56;74.53;102039.84;5015162;28;20040;-64
2023/06/07 05:50:44;;;;;;;15.27;8.15;;;;;;;11.38;75.69;102034.28;5015421;28;20029;-64
2023/06/07 05:53:09;;;;;;;17.92;8.32;;;;;;;11.06;75.29;102041.53;5015239;28;20033;-64
2023/06/07 05:55:36;;;;;;;16.85;8.98;;;;;;;11.18;75.79;102040.22;5015175;28;20462;-65
2023/06/07 05:58:01;;;;;;;19.45;8.65;;;;;;;11.00;74.92;102047.03;5015526;28;20037;-64
2023/06/07 06:00:27;;;;;;;15.75;8.48;;;;;;;10.81;76.82;102033.50;5031525;28;20033;-65
2023/06/07 06:02:56;;;;;;;18.38;9.35;;;;;;;11.01;76.46;102043.47;5031595;28;20017;-65
2023/06/07 06:05:27;;;;;;;19.25;9.63;;;;;;;10.94;76.95;102049.84;5032437;28;20028;-65
2023/06/07 06:07:52;;;;;;;17.88;8.90;;;;;;;10.88;75.63;102039.44;5015755;28;20071;-64
2023/06/07 06:10:18;;;;;;;17.60;9.68;;;;;;;11.16;75.86;102043.88;5014936;28;20060;-65
2023/06/07 06:12:43;;;;;;;17.17;8.52;;;;;;;11.46;75.21;102035.78;5031036;28;20053;-64
2023/06/07 06:15:10;;;;;;;21.17;7.68;;;;;;;11.44;73.88;102037.63;5031522;28;20423;-65
2023/06/07 06:17:35;;;;;;;14.38;8.68;;;;;;;11.52;73.67;102038.22;5015041;28;20032;-64
2023/06/07 06:20:00;;;;;;;12.52;8.15;;;;;;;11.56;74.23;102037.19;5032239;28;20026;-64
2023/06/07 06:22:26;;;;;;;15.15;7.82;;;;;;;11.66;73.86;102035.94;5032592;28;20026;-65
2023/06/07 06:24:51;;;;;;;16.30;8.40;;;;;;;11.79;73.32;102033.75;5031054;28;20033;-66
2023/06/07 06:27:19;;;;;;;18.48;8.10;;;;;;;11.99;72.34;102041.91;5014791;28;20033;-66
2023/06/07 06:29:44;;;;;;;15.32;8.20;;;;;;;12.11;70.32;102038.81;5032495;28;20033;-65
2023/06/07 06:32:10;;;;;;;14.00;8.05;;;;;;;11.98;71.66;102048.97;5031420;28;20482;-65
2023/06/07 06:34:35;;;;;;;18.42;8.93;;;;;;;12.41;69.72;102054.50;5014524;28;20305;-65
2023/06/07 06:37:00;;;;;;;16.27;9.27;;;;;;;12.22;71.25;102047.25;5014549;28;20026;-64
2023/06/07 06:39:26;;;;;;;18.23;9.60;;;;;;;12.44;70.03;102056.19;5014555;28;20132;-65
2023/06/07 06:41:51;;;;;;;22.20;10.43;;;;;;;12.02;71.29;102057.72;5014918;28;20035;-65
2023/06/07 06:44:17;;;;;;;16.95;8.77;;;;;;;12.07;71.70;102061.94;5031616;28;20105;-65
2023/06/07 06:46:42;;;;;;;21.25;9.50;;;;;;;12.66;69.60;102056.22;5031524;28;20442;-65
2023/06/07 06:49:08;;;;;;;14.20;8.82;;;;;;;12.67;69.42;102063.25;5030938;28;20064;-65
2023/06/07 06:51:33;;;;;;;20.70;10.27;;;;;;;12.76;68.96;102057.59;5014775;28;20438;-65
2023/06/07 06:53:58;;;;;;;17.10;9.70;;;;;;;12.31;69.75;102061.09;5014465;28;20104;-65
2023/06/07 06:56:24;;;;;;;17.85;9.48;;;;;;;12.91;68.23;102068.53;5030641;28;20053;-65
2023/06/07 06:58:49;;;;;;;20.65;9.75;;;;;;;12.53;68.56;102067.34;5032941;28;20132;-65
2023/06/07 07:01:15;;;;;;;22.10;9.05;;;;;;;13.26;66.78;102055.59;5035961;28;20033;-65
2023/06/07 07:03:40;;;;;;;21.00;9.02;;;;;;;13.00;67.57;102060.19;5035919;28;20021;-65
2023/06/07 07:06:07;;;;;;;17.10;8.90;;;;;;;13.08;66.70;102058.06;5036021;28;20025;-65
2023/06/07 07:08:34;;;;;;;13.50;8.10;;;;;;;13.44;64.81;102055.78;5002337;28;20021;-64
2023/06/07 07:11:00;;;;;;;19.27;9.88;;;;;;;13.42;65.81;102053.19;5019030;28;20017;-64
2023/06/07 07:13:25;;;;;;;16.92;9.40;;;;;;;13.17;66.16;102056.84;5018233;28;20516;-65
2023/06/07 07:15:50;;;;;;;17.27;8.75;;;;;;;13.10;65.86;102053.56;5018162;28;20028;-64
2023/06/07 07:18:16;;;;;;;18.65;8.98;;;;;;;13.47;65.75;102047.69;5036538;28;20044;-65
2023/06/07 07:20:41;;;;;;;16.98;8.45;;;;;;;13.63;65.85;102048.75;5035044;28;20053;-64
2023/06/07 07:23:06;;;;;;;11.93;6.82;;;;;;;13.77;64.68;102055.25;5018184;28;20025;-64
2023/06/07 07:25:32;;;;;;;17.92;8.20;;;;;;;13.55;64.58;102050.88;5001963;28;20094;-64
2023/06/07 07:27:57;;;;;;;17.20;7.93;;;;;;;13.75;63.62;102057.97;5001461;28;20112;-64
2023/06/07 07:30:22;;;;;;;16.45;8.05;;;;;;;13.88;64.21;102058.28;5017789;28;20029;-65
2023/06/07 07:32:48;;;;;;;17.67;8.10;;;;;;;14.30;62.15;102043.09;5018046;28;20022;-65
2023/06/07 07:35:13;;;;;;;17.00;7.45;;;;;;;14.10;62.49;102049.38;5034868;28;20101;-64
2023/06/07 07:37:39;;;;;;;17.60;7.60;;;;;;;14.22;62.63;102051.47;5034603;28;20025;-66
2023/06/07 07:40:14;;;;;;;12.73;6.65;;;;;;;14.94;60.37;102048.13;5035475;28;20386;-66
2023/06/07 07:42:40;;;;;;;14.75;7.85;;;;;;;15.13;58.98;102054.28;5036422;28;20539;-72
2023/06/07 07:45:06;;;;;;;17.73;6.53;;;;;;;14.35;60.07;102050.88;5037545;28;20021;-73
2023/06/07 07:47:31;;;;;;;12.73;6.70;;;;;;;14.56;60.75;102060.53;5037192;28;20040;-72
2023/06/07 07:49:56;;;;;;;17.23;6.55;;;;;;;15.15;58.98;102047.06;5019066;28;20025;-73
2023/06/07 07:52:22;;;;;;;16.55;7.47;;;;;;;15.25;59.85;102052.81;5018873;28;20781;-73
2023/06/07 07:54:47;;;;;;;15.23;6.35;;;;;;;15.30;58.54;102049.91;5036668;28;20087;-72
2023/06/07 07:57:13;;;;;;;16.48;7.60;;;;;;;15.15;58.91;102055.06;5002629;28;20072;-73
2023/06/07 07:59:38;;;;;;;14.27;6.10;;;;;;;15.25;58.46;102047.47;5036524;28;20029;-72
2023/06/07 08:02:03;;;;;;;15.15;6.68;;;;;;;15.38;58.50;102052.19;5036286;28;20359;-71
2023/06/07 08:04:29;;;;;;;11.43;5.80;;;;;;;15.26;58.05;102053.66;5019857;28;20029;-72
2023/06/07 08:06:55;;;;;;;19.33;7.40;;;;;;;15.92;55.18;102040.56;5018900;28;20148;-72
2023/06/07 08:09:20;;;;;;;10.60;5.75;;;;;;;16.00;56.41;102033.84;5036179;28;20382;-73
2023/06/07 08:11:47;;;;;;;12.30;5.65;;;;;;;15.97;55.82;102027.84;5018271;28;20036;-71
2023/06/07 08:14:12;;;;;;;16.48;5.97;;;;;;;16.24;55.06;102036.13;5018573;28;20026;-72
2023/06/07 08:16:38;;;;;;;17.35;6.45;;;;;;;16.38;55.35;102034.53;5036281;28;20470;-72
2023/06/07 08:19:06;;;;;;;14.75;5.82;;;;;;;16.23;56.07;102029.06;5036276;28;20370;-72
2023/06/07 08:21:32;;;;;;;13.90;6.15;;;;;;;16.89;54.42;102037.84;5035910;28;20025;-73
2023/06/07 08:23:57;;;;;;;12.90;6.07;;;;;;;16.55;55.25;102026.41;5018244;28;20470;-73
2023/06/07 08:26:22;;;;;;;15.02;5.85;;;;;;;17.04;54.53;102027.22;5035707;28;20091;-74
2023/06/07 08:28:48;;;;;;;11.07;5.50;;;;;;;17.27;53.56;102031.22;5034940;28;20075;-72
2023/06/07 08:31:13;;;;;;;9.57;5.95;;;;;;;17.32;52.41;102028.28;5035954;28;20053;-72
2023/06/07 08:33:38;;;;;;;14.00;7.15;;;;;;;17.33;52.72;102030.03;5034775;28;20033;-73
2023/06/07 08:36:04;;;;;;;15.15;6.38;;;;;;;17.52;52.28;102024.44;5036409;28;20033;-72
2023/06/07 08:38:29;;;;;;;13.00;6.30;;;;;;;17.75;50.56;102025.69;5018067;28;20071;-74
2023/06/07 08:40:55;;;;;;;16.08;6.07;;;;;;;17.89;52.19;102026.66;5018307;28;20104;-73
2023/06/07 08:43:21;;;;;;;17.65;6.63;;;;;;;17.80;50.77;102032.56;5001539;28;20032;-73
2023/06/07 08:45:49;;;;;;;17.85;7.55;;;;;;;17.98;49.90;102023.41;5001291;28;20490;-73
2023/06/07 08:48:16;;;;;;;16.25;6.80;;;;;;;18.43;50.20;102025.09;5001843;28;20026;-73
2023/06/07 08:50:43;;;;;;;15.15;6.90;;;;;;;18.18;50.57;102032.03;5017324;28;20033;-74
2023/06/07 08:53:12;;;;;;;11.55;6.82;;;;;;;18.34;48.96;102032.75;5017646;28;20090;-72
2023/06/07 08:55:38;;;;;;;13.18;7.70;;;;;;;18.28;48.75;102032.31;5035545;28;20037;-73
2023/06/07 08:58:03;;;;;;;16.48;7.95;;;;;;;18.35;49.25;102033.66;5000952;28;20029;-71
2023/06/07 09:00:29;;;;;;;18.50;8.40;;;;;;;18.09;49.61;102022.75;5035735;28;20138;-72
2023/06/07 09:02:54;;;;;;;14.88;8.68;;;;;;;18.44;48.97;102032.16;5017836;28;20081;-72
2023/06/07 09:05:21;;;;;;;14.48;7.75;;;;;;;19.40;46.21;102017.84;5035047;28;20028;-72
2023/06/07 09:07:46;;;;;;;16.80;8.60;;;;;;;19.33;46.82;102025.44;5017576;28;20360;-72
2023/06/07 09:10:13;;;;;;;17.15;9.55;;;;;;;18.85;48.17;102027.75;5035164;28;20033;-71
2023/06/07 09:12:39;;;;;;;13.43;9.15;;;;;;;19.29;46.97;102018.56;5017188;28;20533;-71
2023/06/07 09:15:07;;;;;;;13.40;7.85;;;;;;;19.10;47.21;102016.28;5017382;28;20378;-72
2023/06/07 09:17:50;;;;;;;21.63;11.35;;;;;;;19.18;47.69;102024.66;5001983;28;20025;-72
2023/06/07 09:20:20;;;;;;;13.65;8.63;;;;;;;19.32;46.46;102028.25;5018832;28;20470;-73
2023/06/07 09:23:02;;;;;;;17.98;8.75;;;;;;;19.82;45.22;102017.63;5017904;28;20311;-72
2023/06/07 09:25:28;;;;;;;14.55;8.93;;;;;;;20.00;44.50;102012.78;5035528;28;20025;-73
2023/06/07 09:27:54;;;;;;;18.77;9.05;;;;;;;19.54;46.69;102019.56;5036641;28;20104;-73
2023/06/07 09:30:20;;;;;;;14.57;8.02;;;;;;;20.07;44.79;102006.03;5016972;28;20347;-72
2023/06/07 09:32:45;;;;;;;13.63;7.25;;;;;;;20.01;44.75;102009.13;5018181;28;20028;-71
2023/06/07 09:35:12;;;;;;;12.98;7.30;;;;;;;20.63;42.92;102003.81;5035444;28;20030;-72
2023/06/07 09:37:43;;;;;;;19.48;7.85;;;;;;;20.59;43.67;101997.78;5018489;28;20044;-72
2023/06/07 09:40:09;;;;;;;14.65;7.53;;;;;;;20.11;44.66;102001.28;5001191;28;20063;-73
2023/06/07 09:42:34;;;;;;;12.30;7.00;;;;;;;20.30;44.72;101987.38;5035697;28;20425;-72
2023/06/07 09:45:17;;;;;;;12.18;7.53;;;;;;;20.20;44.23;102007.84;5033839;28;20104;-72
2023/06/07 09:47:42;;;;;;;15.00;7.53;;;;;;;20.36;44.27;101999.50;5017061;28;20044;-72
2023/06/07 09:50:12;;;;;;;13.75;7.45;;;;;;;20.92;42.96;101992.72;5033371;28;20474;-73
2023/06/07 09:52:38;;;;;;;11.50;7.25;;;;;;;20.66;44.04;101992.84;5034569;28;20073;-72
2023/06/07 09:55:08;;;;;;;14.50;7.45;;;;;;;21.00;43.58;102000.22;5000339;28;20049;-73
2023/06/07 09:57:35;;;;;;;13.75;6.93;;;;;;;21.01;43.24;102001.94;5016816;28;20112;-72
2023/06/07 10:00:16;;;;;;;16.30;7.72;;;;;;;21.17;42.90;101993.53;5034765;28;20033;-71
2023/06/07 10:02:42;;;;;;;12.73;7.03;;;;;;;21.27;43.46;102008.00;5018821;28;20029;-72
2023/06/07 10:05:14;;;;;;;14.23;7.97;;;;;;;21.21;42.87;102001.25;5000183;28;20462;-71
2023/06/07 10:07:45;;;;;;;11.15;7.45;;;;;;;21.32;42.74;102004.94;5016669;28;20061;-73
2023/06/07 10:10:12;;;;;;;13.63;6.50;;;;;;;21.18;43.01;101992.56;5016815;28;20470;-72
2023/06/07 10:12:45;;;;;;;14.98;6.25;;;;;;;20.61;44.67;101989.63;4999900;28;20029;-73
2023/06/07 10:15:12;;;;;;;11.18;5.43;;;;;;;21.24;43.50;101992.94;5000344;28;20478;-73
2023/06/07 10:17:48;;;;;;;16.00;6.95;;;;;;;20.99;43.01;101991.28;5016168;28;20446;-73
2023/06/07 10:20:24;;;;;;;10.70;6.40;;;;;;;21.26;43.04;101988.31;5016714;28;20433;-72
2023/06/07 10:22:51;;;;;;;13.70;6.63;;;;;;;21.66;42.27;101997.81;5016670;28;20025;-72
2023/06/07 10:25:20;;;;;;;12.95;6.00;;;;;;;21.79;42.03;101981.56;5016656;28;20029;-72
2023/06/07 10:28:13;;;;;;;12.98;5.80;;;;;;;22.01;41.69;101979.81;5016858;28;20025;-72
2023/06/07 10:30:43;;;;;;;15.40;6.00;;;;;;;22.24;42.29;101980.66;5010799;28;20037;-72
2023/06/07 10:33:09;;;;;;;9.82;4.68;;;;;;;21.43;43.20;101980.75;5017360;28;20085;-72
2023/06/07 10:35:37;;;;;;;10.68;5.32;;;;;;;22.39;42.15;101970.44;5038542;28;20060;-73
2023/06/07 10:38:02;;;;;;;12.00;5.50;;;;;;;22.02;42.69;101976.13;5020674;28;20491;-74
2023/06/07 10:40:28;;;;;;;7.45;4.72;;;;;;;21.77;42.98;101986.19;5037067;28;20032;-72
2023/06/07 10:42:55;;;;;;;10.45;4.88;;;;;;;21.97;42.74;101967.56;5037567;28;20028;-73
2023/06/07 10:45:21;;;;;;;12.80;5.32;;;;;;;22.07;41.87;101968.53;5020697;28;20056;-72
2023/06/07 10:47:49;;;;;;;12.50;5.03;;;;;;;22.20;41.91;101962.13;5020415;28;20371;-73
2023/06/07 10:50:27;;;;;;;13.00;4.53;;;;;;;22.18;42.51;101967.66;5037026;28;20024;-72
2023/06/07 10:53:10;;;;;;;12.73;4.97;;;;;;;22.04;42.90;101962.56;5037708;28;20029;-73
2023/06/07 10:55:36;;;;;;;12.77;4.60;;;;;;;21.78;42.92;101966.38;5020234;28;20056;-73
2023/06/07 10:58:01;;;;;;;11.15;4.55;;;;;;;21.69;43.29;101967.94;5019817;28;20470;-73
2023/06/07 11:00:32;;;;;;;9.82;5.28;;;;;;;22.35;42.80;101969.00;5036583;28;20476;-74
2023/06/07 11:03:21;;;;;;;11.68;5.85;;;;;;;21.91;42.30;101958.13;5020689;28;20466;-75
2023/06/07 11:05:58;;;;;;;10.70;5.22;;;;;;;22.77;41.44;101956.59;5029984;28;20491;-73
2023/06/07 11:08:24;;;;;;;13.35;5.22;;;;;;;22.81;41.45;101960.75;5020091;28;20037;-74
2023/06/07 11:10:50;;;;;;;13.55;5.20;;;;;;;22.35;42.05;101955.50;5020136;28;20095;-73
2023/06/07 11:13:15;;;;;;;12.50;6.30;;;;;;;22.61;41.34;101963.28;5003628;28;20022;-72
2023/06/07 11:15:40;;;;;;;12.00;4.75;;;;;;;23.01;40.89;101962.59;5036965;28;20066;-72